Time;durP1;ratioP1;P1;durP2;ratioP2;P2;SDS_P1;SDS_P2;PMS_P1;PMS_P2;Temp;Humidity;BMP_temperature;BMP_pressure;BME280_temperature;BME280_humidity;BME280_pressure;Samples;Min_cycle;Max_cycle;Signal;HPM_P1;HPM_P2
2023/06/20 00:01:38;;;;;;;12.85;6.30;;;;;;;14.96;56.83;99086.88;4956045;28;20046;-72
2023/06/20 00:04:03;;;;;;;10.40;5.88;;;;;;;14.97;56.92;99087.75;4940439;28;20050;-72
2023/06/20 00:06:28;;;;;;;21.45;7.30;;;;;;;14.96;56.78;99080.69;4942873;28;20073;-73
2023/06/20 00:08:54;;;;;;;12.45;6.38;;;;;;;14.95;56.82;99081.66;4965662;28;20048;-70
2023/06/20 00:11:19;;;;;;;15.95;6.60;;;;;;;14.94;57.17;99077.28;4979185;28;20405;-72
2023/06/20 00:13:44;;;;;;;22.27;6.78;;;;;;;14.92;57.05;99082.81;4970305;28;20050;-70
2023/06/20 00:16:10;;;;;;;16.92;6.22;;;;;;;14.89;57.02;99083.97;4959470;28;20045;-77
2023/06/20 00:18:35;;;;;;;15.32;6.70;;;;;;;14.87;57.09;99085.97;4941673;28;20054;-70
2023/06/20 00:21:00;;;;;;;14.05;6.65;;;;;;;14.84;57.45;99082.72;4958177;28;20035;-71
2023/06/20 00:23:25;;;;;;;14.48;7.10;;;;;;;14.82;56.97;99079.34;4957114;28;20070;-72
2023/06/20 00:25:51;;;;;;;18.83;6.88;;;;;;;14.80;57.49;99071.44;4974771;28;20050;-72
2023/06/20 00:28:17;;;;;;;22.08;6.53;;;;;;;14.79;56.99;99080.47;4958949;28;20050;-72
2023/06/20 00:30:44;;;;;;;16.13;6.28;;;;;;;14.77;57.37;99084.31;4957800;28;20058;-72
2023/06/20 00:33:10;;;;;;;15.40;6.60;;;;;;;14.75;57.77;99084.47;4958133;28;20053;-71
2023/06/20 00:35:36;;;;;;;15.25;6.75;;;;;;;14.70;57.44;99077.84;4941952;28;20050;-71
2023/06/20 00:38:02;;;;;;;16.65;6.72;;;;;;;14.68;57.36;99078.00;4941598;28;20057;-72
2023/06/20 00:40:27;;;;;;;12.73;6.65;;;;;;;14.65;57.80;99078.31;4958124;28;20046;-74
2023/06/20 00:42:52;;;;;;;18.60;7.15;;;;;;;14.63;57.87;99080.31;4974600;28;20042;-68
2023/06/20 00:45:34;;;;;;;19.13;7.47;;;;;;;14.68;57.52;99082.50;4957700;28;20046;-66
2023/06/20 00:48:06;;;;;;;16.45;7.20;;;;;;;14.62;57.14;99083.13;4957435;28;20057;-70
2023/06/20 00:50:33;;;;;;;15.93;7.43;;;;;;;14.56;56.84;99081.88;4958771;28;20061;-70
2023/06/20 00:53:00;;;;;;;12.23;6.35;;;;;;;14.53;57.05;99091.09;4973613;28;20465;-69
2023/06/20 00:55:27;;;;;;;16.23;6.53;;;;;;;14.51;57.30;99093.06;4957732;28;20529;-70
2023/06/20 00:57:56;;;;;;;14.65;6.18;;;;;;;14.52;56.61;99085.88;4973879;28;20050;-70
2023/06/20 01:00:22;;;;;;;18.02;6.63;;;;;;;14.50;56.64;99082.47;4953438;28;20058;-68
2023/06/20 01:02:47;;;;;;;11.38;6.15;;;;;;;14.48;56.80;99085.31;4939241;28;20509;-69
2023/06/20 01:05:16;;;;;;;10.75;5.35;;;;;;;14.49;57.00;99091.50;4937488;28;20105;-69
2023/06/20 01:08:15;;;;;;;16.13;6.57;;;;;;;14.51;56.85;99089.53;4939085;28;20051;-69
2023/06/20 01:10:48;;;;;;;16.35;6.25;;;;;;;14.42;56.77;99085.06;4902819;28;20062;-69
2023/06/20 01:13:24;;;;;;;18.35;7.40;;;;;;;14.42;57.38;99085.91;4920759;28;20557;-69
2023/06/20 01:15:57;;;;;;;12.82;6.70;;;;;;;14.43;57.46;99090.28;4920519;28;20074;-69
2023/06/20 01:18:45;;;;;;;14.55;7.32;;;;;;;14.41;57.34;99086.91;4901428;28;20047;-69
2023/06/20 01:21:17;;;;;;;11.43;6.10;;;;;;;14.41;57.48;99091.41;4917474;29;20418;-68
2023/06/20 01:23:52;;;;;;;12.18;6.03;;;;;;;14.41;57.45;99091.41;4917432;29;20058;-67
2023/06/20 01:26:23;;;;;;;11.07;6.20;;;;;;;14.39;57.66;99088.88;4900722;29;20050;-69
2023/06/20 01:29:01;;;;;;;18.02;6.57;;;;;;;14.40;57.76;99090.56;4900451;29;20043;-66
2023/06/20 01:31:33;;;;;;;19.30;6.95;;;;;;;14.37;57.49;99093.50;4910292;28;20050;-66
2023/06/20 01:34:11;;;;;;;9.50;5.50;;;;;;;14.42;57.91;99090.44;4936520;28;20540;-65
2023/06/20 01:36:42;;;;;;;17.17;5.43;;;;;;;14.42;57.88;99087.75;4936419;28;20440;-65
2023/06/20 01:39:12;;;;;;;13.43;5.90;;;;;;;14.49;57.24;99078.94;4936513;28;20054;-66
2023/06/20 01:41:41;;;;;;;10.82;5.63;;;;;;;14.59;56.95;99091.47;4936348;28;20065;-66
2023/06/20 01:44:09;;;;;;;11.05;5.72;;;;;;;14.69;56.85;99089.56;4936433;28;20041;-66
2023/06/20 01:46:34;;;;;;;13.45;6.18;;;;;;;14.79;57.02;99085.84;4936295;28;20051;-65
2023/06/20 01:49:01;;;;;;;11.75;5.47;;;;;;;14.88;56.28;99095.72;4956667;28;20053;-66
2023/06/20 01:51:29;;;;;;;15.75;6.82;;;;;;;14.95;57.22;99092.41;4952838;28;20410;-66
2023/06/20 01:53:57;;;;;;;11.57;5.80;;;;;;;15.00;57.31;99100.88;4957089;28;20049;-65
2023/06/20 01:56:26;;;;;;;10.90;6.10;;;;;;;15.02;57.31;99098.84;4957372;28;20054;-68
2023/06/20 01:58:54;;;;;;;12.02;5.82;;;;;;;15.03;57.18;99097.84;4949178;28;20053;-70
2023/06/20 02:01:21;;;;;;;14.27;6.50;;;;;;;15.04;57.42;99103.06;4973987;28;20378;-70
2023/06/20 02:03:47;;;;;;;10.18;5.50;;;;;;;15.06;57.99;99102.94;4974495;28;20046;-67
2023/06/20 02:06:15;;;;;;;11.55;5.45;;;;;;;15.09;57.21;99098.13;4958339;28;20061;-69
2023/06/20 02:08:42;;;;;;;12.98;5.90;;;;;;;15.09;57.33;99100.78;4957923;28;20042;-70
2023/06/20 02:11:09;;;;;;;8.95;5.68;;;;;;;15.14;57.43;99100.31;4959237;28;20050;-71
2023/06/20 02:13:38;;;;;;;21.95;7.18;;;;;;;15.16;58.25;99099.19;4957959;28;20703;-71
2023/06/20 02:16:06;;;;;;;12.60;5.47;;;;;;;15.21;57.70;99096.06;4940179;28;20054;-73
2023/06/20 02:18:32;;;;;;;12.68;5.60;;;;;;;15.23;57.56;99096.75;4958539;28;20050;-70
2023/06/20 02:21:03;;;;;;;13.63;6.38;;;;;;;15.28;57.38;99097.13;4974696;28;20481;-76
2023/06/20 02:23:29;;;;;;;19.27;7.00;;;;;;;15.36;57.38;99097.19;4958132;28;20054;-73
2023/06/20 02:26:08;;;;;;;13.32;5.82;;;;;;;15.47;57.60;99096.13;4959278;28;20049;-71
2023/06/20 02:28:38;;;;;;;8.95;5.60;;;;;;;15.49;57.44;99091.44;4957820;28;20069;-69
2023/06/20 02:31:06;;;;;;;9.27;5.18;;;;;;;15.51;57.27;99092.13;4958013;28;20050;-71
2023/06/20 02:33:32;;;;;;;15.52;5.72;;;;;;;15.54;57.33;99092.72;4940966;28;20047;-70
2023/06/20 02:36:01;;;;;;;10.75;6.10;;;;;;;15.59;56.88;99087.69;4959713;28;20416;-70
2023/06/20 02:38:27;;;;;;;10.98;5.68;;;;;;;15.65;57.11;99082.72;4942080;28;20417;-70
2023/06/20 02:40:52;;;;;;;10.35;5.60;;;;;;;15.76;56.25;99071.72;4957929;28;20053;-70
2023/06/20 02:43:17;;;;;;;13.30;6.13;;;;;;;15.87;56.68;99084.91;4957246;28;20057;-70
2023/06/20 02:45:48;;;;;;;13.43;5.05;;;;;;;15.95;55.81;99084.97;4956382;28;20069;-69
2023/06/20 02:48:29;;;;;;;13.77;6.43;;;;;;;16.10;54.47;99087.94;4957291;28;20050;-71
2023/06/20 02:50:57;;;;;;;8.63;4.78;;;;;;;16.11;53.41;99082.41;4960469;28;20050;-70
2023/06/20 02:53:31;;;;;;;11.95;4.55;;;;;;;16.21;52.24;99079.59;4966524;28;20049;-71
2023/06/20 02:56:05;;;;;;;8.30;4.90;;;;;;;16.30;51.74;99079.47;4976643;28;20053;-70
2023/06/20 02:58:32;;;;;;;12.00;5.03;;;;;;;16.41;52.05;99074.81;4995480;28;20058;-71
2023/06/20 03:01:00;;;;;;;9.23;4.90;;;;;;;16.50;52.28;99080.09;4976577;28;20046;-69
2023/06/20 03:03:30;;;;;;;9.40;5.53;;;;;;;16.61;52.44;99082.47;4995306;28;20030;-73
2023/06/20 03:05:57;;;;;;;10.68;4.63;;;;;;;16.74;53.01;99086.59;4968916;28;20064;-71
2023/06/20 03:08:25;;;;;;;10.15;5.18;;;;;;;16.85;52.36;99089.84;4980079;28;20038;-70
2023/06/20 03:10:51;;;;;;;11.50;5.90;;;;;;;16.87;52.26;99074.38;4979099;28;20053;-72
2023/06/20 03:13:17;;;;;;;10.30;5.32;;;;;;;16.84;52.43;99077.38;4972903;28;20050;-67
2023/06/20 03:15:44;;;;;;;8.35;4.90;;;;;;;16.75;52.35;99078.38;4953506;28;20046;-66
2023/06/20 03:18:11;;;;;;;9.80;5.82;;;;;;;16.64;53.09;99081.34;4971151;28;20547;-66
2023/06/20 03:20:38;;;;;;;8.07;4.65;;;;;;;16.54;54.04;99077.91;4971390;28;20531;-66
2023/06/20 03:23:04;;;;;;;8.48;5.18;;;;;;;16.50;52.72;99079.22;4954717;28;20445;-67
2023/06/20 03:25:30;;;;;;;12.57;4.70;;;;;;;16.56;52.73;99067.84;4971207;28;20054;-67
2023/06/20 03:27:55;;;;;;;9.80;4.47;;;;;;;16.75;52.09;99075.69;4955051;28;20046;-66
2023/06/20 03:30:21;;;;;;;7.03;4.55;;;;;;;16.95;50.07;99065.47;4964548;28;20394;-67
2023/06/20 03:32:49;;;;;;;9.48;5.40;;;;;;;17.18;49.80;99069.22;4947147;28;20382;-66
2023/06/20 03:35:14;;;;;;;10.02;5.07;;;;;;;17.40;49.34;99063.19;4956125;28;20042;-66
2023/06/20 03:37:39;;;;;;;8.20;4.93;;;;;;;17.59;48.47;99067.44;4954275;28;20046;-67
2023/06/20 03:40:05;;;;;;;9.05;4.80;;;;;;;17.76;48.39;99068.31;4939368;28;20457;-68
2023/06/20 03:42:34;;;;;;;8.15;4.90;;;;;;;17.98;47.85;99067.59;4954896;28;20048;-67
2023/06/20 03:44:59;;;;;;;9.25;4.93;;;;;;;18.18;46.87;99059.97;4938258;28;20061;-69
2023/06/20 03:47:25;;;;;;;10.55;5.13;;;;;;;18.38;46.50;99055.06;4954931;28;20050;-67
2023/06/20 03:49:52;;;;;;;8.38;4.35;;;;;;;18.57;45.47;99059.19;4937851;28;20050;-68
2023/06/20 03:52:18;;;;;;;12.57;5.20;;;;;;;18.73;44.90;99053.78;4954813;28;20049;-68
2023/06/20 03:54:43;;;;;;;10.93;5.75;;;;;;;18.90;44.59;99063.47;4954741;28;20069;-67
2023/06/20 03:57:09;;;;;;;9.60;4.65;;;;;;;19.05;44.35;99061.72;4954637;28;20050;-67
2023/06/20 03:59:34;;;;;;;9.40;5.03;;;;;;;19.22;43.89;99065.13;4954841;28;20501;-68
2023/06/20 04:01:59;;;;;;;7.47;4.82;;;;;;;19.39;43.66;99061.31;4955879;28;20049;-68
2023/06/20 04:04:24;;;;;;;12.35;5.00;;;;;;;19.60;43.14;99059.84;4955007;28;20042;-68
2023/06/20 04:06:50;;;;;;;10.15;4.60;;;;;;;19.73;42.92;99060.91;4956202;28;20049;-67
2023/06/20 04:09:17;;;;;;;11.02;5.00;;;;;;;19.73;42.62;99058.22;4955636;28;20050;-68
2023/06/20 04:11:44;;;;;;;7.40;4.63;;;;;;;19.67;42.22;99055.38;4954753;28;20042;-69
2023/06/20 04:14:12;;;;;;;7.90;4.95;;;;;;;19.64;42.62;99051.16;4954110;28;20062;-69
2023/06/20 04:16:37;;;;;;;5.38;4.22;;;;;;;19.79;42.44;99052.06;4954729;28;20045;-67
2023/06/20 04:19:03;;;;;;;7.10;4.05;;;;;;;20.03;41.44;99050.16;4971150;28;20051;-68
2023/06/20 04:21:31;;;;;;;5.55;4.35;;;;;;;20.23;41.67;99049.41;4955775;28;20034;-68
2023/06/20 04:23:56;;;;;;;5.55;4.32;;;;;;;20.48;41.53;99041.06;4954387;28;20054;-68
2023/06/20 04:26:21;;;;;;;5.95;4.68;;;;;;;20.71;41.17;99040.94;4955390;28;20050;-68
2023/06/20 04:28:47;;;;;;;9.18;5.50;;;;;;;20.86;40.18;99041.78;4955493;28;20390;-68
2023/06/20 04:31:12;;;;;;;8.50;5.35;;;;;;;20.88;39.72;99042.44;4922179;28;20501;-68
2023/06/20 04:33:43;;;;;;;8.13;4.97;;;;;;;20.97;39.97;99035.88;4954139;28;20054;-67
2023/06/20 04:36:13;;;;;;;6.53;4.88;;;;;;;21.16;39.56;99050.66;4938254;28;20046;-67
2023/06/20 04:38:44;;;;;;;9.80;5.13;;;;;;;21.44;38.90;99048.91;4954569;28;20054;-67
2023/06/20 04:41:12;;;;;;;8.10;4.70;;;;;;;21.61;38.68;99039.47;4937726;28;20046;-67
2023/06/20 04:43:38;;;;;;;8.02;4.68;;;;;;;21.92;38.57;99033.66;4922378;28;20058;-66
2023/06/20 04:46:04;;;;;;;6.03;4.60;;;;;;;22.20;37.32;99039.16;4953970;28;20050;-67
2023/06/20 04:48:30;;;;;;;10.18;4.47;;;;;;;22.59;36.62;99035.81;4938345;28;20730;-67
2023/06/20 04:50:57;;;;;;;14.90;4.82;;;;;;;22.99;35.88;99030.59;4941433;28;20050;-67
2023/06/20 04:53:23;;;;;;;10.00;4.57;;;;;;;23.23;34.65;99027.31;4957838;28;20061;-67
2023/06/20 04:55:51;;;;;;;7.47;4.60;;;;;;;23.55;35.09;99033.88;4958768;28;20492;-68
2023/06/20 04:58:16;;;;;;;11.70;4.35;;;;;;;23.98;34.23;99036.19;4959009;28;20061;-67
2023/06/20 05:00:41;;;;;;;17.02;4.65;;;;;;;24.31;33.55;99031.56;4958009;28;20393;-67
2023/06/20 05:03:07;;;;;;;9.82;5.07;;;;;;;24.69;32.96;99030.84;4924988;28;20054;-67
2023/06/20 05:05:33;;;;;;;6.93;5.32;;;;;;;25.09;31.90;99028.81;4957576;28;20505;-68
2023/06/20 05:07:58;;;;;;;10.55;4.72;;;;;;;25.42;31.34;99028.59;4940765;28;20073;-67
2023/06/20 05:10:24;;;;;;;5.78;4.78;;;;;;;25.65;31.07;99021.53;4956818;28;20050;-68
2023/06/20 05:12:49;;;;;;;9.95;4.75;;;;;;;25.85;30.54;99026.00;4956592;28;20519;-67
2023/06/20 05:15:14;;;;;;;10.10;5.13;;;;;;;25.92;30.46;99022.19;4959456;28;20049;-67
2023/06/20 05:17:40;;;;;;;8.70;4.40;;;;;;;26.06;30.48;99019.34;4958028;28;20042;-68
2023/06/20 05:20:06;;;;;;;9.27;5.10;;;;;;;26.14;30.41;99024.50;4940059;28;20730;-68
2023/06/20 05:22:35;;;;;;;11.52;5.15;;;;;;;26.37;29.51;99020.09;4956850;28;20058;-68
2023/06/20 05:25:01;;;;;;;7.15;4.90;;;;;;;26.60;29.75;99008.47;4956665;28;20054;-69
2023/06/20 05:27:30;;;;;;;9.60;4.82;;;;;;;26.74;29.68;99014.63;4958430;28;20062;-68
2023/06/20 05:29:55;;;;;;;9.63;5.65;;;;;;;26.84;29.03;99006.72;4957457;28;20509;-69
2023/06/20 05:32:20;;;;;;;7.65;5.40;;;;;;;27.09;29.26;99004.72;4956257;28;20046;-67
2023/06/20 05:34:45;;;;;;;12.65;6.03;;;;;;;27.32;29.60;99009.44;4958541;28;20073;-69
2023/06/20 05:37:10;;;;;;;11.48;5.20;;;;;;;27.47;28.70;99009.00;4958411;28;20049;-68
2023/06/20 05:39:36;;;;;;;10.40;4.88;;;;;;;27.61;29.21;99002.31;4958572;28;20053;-68
2023/06/20 05:42:01;;;;;;;7.88;4.95;;;;;;;27.82;28.55;99007.22;4957989;28;20049;-69
2023/06/20 05:44:26;;;;;;;7.57;4.90;;;;;;;28.08;28.61;99005.09;4957852;28;20386;-68
2023/06/20 05:46:53;;;;;;;8.02;4.50;;;;;;;28.36;28.10;98994.25;4941235;28;20046;-68
2023/06/20 05:49:21;;;;;;;7.13;5.10;;;;;;;28.63;27.78;98996.47;4957594;28;20504;-69
2023/06/20 05:51:46;;;;;;;6.32;4.20;;;;;;;28.87;27.67;98987.16;4956600;28;20042;-68
2023/06/20 05:54:11;;;;;;;8.98;4.72;;;;;;;29.20;27.23;99000.16;4924140;28;20065;-69
2023/06/20 05:56:37;;;;;;;8.52;4.82;;;;;;;29.64;26.87;98993.00;4955789;28;20050;-70
2023/06/20 05:59:03;;;;;;;6.70;4.40;;;;;;;30.18;26.30;98994.19;4957878;28;20532;-68
2023/06/20 06:01:28;;;;;;;10.57;5.45;;;;;;;30.72;26.03;98980.63;4955051;28;20061;-69
2023/06/20 06:03:55;;;;;;;8.85;4.53;;;;;;;31.42;24.93;98985.28;4957719;28;20057;-67
2023/06/20 06:06:20;;;;;;;5.47;4.15;;;;;;;32.12;23.77;98984.25;4956109;28;20053;-67
2023/06/20 06:08:46;;;;;;;5.65;4.60;;;;;;;32.70;23.13;98979.66;4957887;28;20050;-68
2023/06/20 06:11:11;;;;;;;6.13;4.28;;;;;;;33.22;23.44;98976.81;4957652;28;20053;-69
2023/06/20 06:13:38;;;;;;;11.13;5.45;;;;;;;33.81;22.69;98979.97;4958237;28;20045;-69
2023/06/20 06:16:03;;;;;;;11.65;5.45;;;;;;;34.46;22.04;98985.69;4958286;28;20046;-68
2023/06/20 06:18:30;;;;;;;8.60;4.85;;;;;;;35.06;21.40;98979.13;4958236;28;20425;-69
2023/06/20 06:20:55;;;;;;;6.95;4.38;;;;;;;35.71;20.74;98979.81;4963333;28;20065;-70
2023/06/20 06:23:21;;;;;;;8.95;4.60;;;;;;;35.67;20.36;98987.88;4967020;28;20104;-69
2023/06/20 06:25:46;;;;;;;6.78;5.30;;;;;;;35.80;19.94;98983.63;4956152;28;20050;-68
2023/06/20 06:28:11;;;;;;;9.40;4.70;;;;;;;35.84;19.72;98983.88;4958355;28;20046;-69
2023/06/20 06:30:37;;;;;;;6.72;4.25;;;;;;;36.19;19.60;98982.72;4968091;28;20453;-69
2023/06/20 06:33:04;;;;;;;14.95;5.50;;;;;;;36.16;19.64;98980.53;4971732;28;20035;-69
2023/06/20 06:35:30;;;;;;;7.75;4.60;;;;;;;35.49;20.04;98982.19;4976463;28;20523;-69
2023/06/20 06:37:57;;;;;;;6.90;4.22;;;;;;;34.32;20.79;98979.09;4960701;28;20050;-68
2023/06/20 06:40:23;;;;;;;9.27;5.00;;;;;;;33.24;21.76;98976.56;4959372;28;20042;-68
2023/06/20 06:42:49;;;;;;;6.88;4.50;;;;;;;32.32;22.88;98975.31;4956731;28;20046;-68
2023/06/20 06:45:14;;;;;;;5.70;4.80;;;;;;;31.57;23.94;98973.59;4956797;28;20050;-68
2023/06/20 06:47:39;;;;;;;8.95;4.53;;;;;;;31.27;24.48;98977.72;4955989;28;20065;-69
2023/06/20 06:50:06;;;;;;;10.48;4.43;;;;;;;31.15;23.63;98970.72;4973240;28;20512;-68
2023/06/20 06:52:34;;;;;;;15.95;5.20;;;;;;;30.80;24.80;98962.84;4956996;28;20054;-68
2023/06/20 06:54:59;;;;;;;8.82;4.47;;;;;;;30.40;24.48;98969.47;4957905;28;20050;-70
2023/06/20 06:57:24;;;;;;;10.77;5.10;;;;;;;30.03;24.92;98966.44;4958531;28;20034;-68
2023/06/20 06:59:49;;;;;;;6.57;4.93;;;;;;;30.01;25.22;98963.13;4957166;28;20081;-69
2023/06/20 07:02:14;;;;;;;11.50;5.32;;;;;;;30.02;24.84;98969.47;4958263;28;20038;-68
2023/06/20 07:04:40;;;;;;;7.38;4.28;;;;;;;30.00;25.63;98960.63;4956921;28;20501;-67
2023/06/20 07:07:05;;;;;;;5.68;4.32;;;;;;;29.91;25.31;98966.50;4958312;28;20046;-68
2023/06/20 07:09:31;;;;;;;6.57;5.20;;;;;;;29.77;25.47;98962.47;4958407;28;20359;-68
2023/06/20 07:11:56;;;;;;;8.88;4.88;;;;;;;29.67;25.88;98962.28;4958066;28;20408;-68
2023/06/20 07:14:21;;;;;;;8.52;5.03;;;;;;;29.91;25.87;98965.69;4958176;28;20057;-68
2023/06/20 07:16:46;;;;;;;4.75;4.25;;;;;;;30.22;25.13;98958.75;4957266;28;20042;-68
2023/06/20 07:19:11;;;;;;;7.18;4.25;;;;;;;31.29;24.63;98964.50;4940743;28;20061;-68
2023/06/20 07:21:37;;;;;;;7.95;4.07;;;;;;;32.10;24.38;98959.69;4958232;28;20038;-67
2023/06/20 07:24:02;;;;;;;7.45;4.32;;;;;;;32.29;23.75;98949.06;4956977;28;20065;-68
2023/06/20 07:26:27;;;;;;;6.38;4.50;;;;;;;31.85;22.88;98956.75;4958074;28;20034;-69
2023/06/20 07:28:52;;;;;;;5.25;4.00;;;;;;;31.30;23.33;98955.16;4957754;28;20038;-69
2023/06/20 07:31:19;;;;;;;11.02;4.70;;;;;;;31.00;24.72;98965.84;4956698;28;20516;-68
2023/06/20 07:33:45;;;;;;;6.03;4.97;;;;;;;31.12;24.19;98960.22;4956290;28;20046;-68
2023/06/20 07:36:11;;;;;;;5.65;4.10;;;;;;;31.09;23.88;98958.81;4958005;28;20054;-69
2023/06/20 07:38:36;;;;;;;12.00;5.32;;;;;;;30.78;24.05;98957.59;4956926;28;20049;-69
2023/06/20 07:41:01;;;;;;;5.43;4.22;;;;;;;30.44;23.78;98962.38;4957624;28;20057;-67
2023/06/20 07:43:26;;;;;;;8.40;4.10;;;;;;;30.12;24.72;98958.63;4957897;28;20042;-67
2023/06/20 07:45:52;;;;;;;7.03;4.72;;;;;;;30.33;24.42;98957.81;4957053;28;20053;-69
2023/06/20 07:48:17;;;;;;;35.65;21.30;;;;;;;30.61;24.64;98963.16;4965590;28;20030;-67
2023/06/20 07:50:42;;;;;;;12.82;8.15;;;;;;;31.04;24.35;98956.78;4977927;28;20038;-66
2023/06/20 07:53:07;;;;;;;8.35;5.22;;;;;;;31.17;23.74;98955.56;4981348;28;20050;-67
2023/06/20 07:55:33;;;;;;;6.47;3.70;;;;;;;31.03;23.73;98959.81;4980130;28;20088;-68
2023/06/20 07:57:58;;;;;;;13.10;4.93;;;;;;;30.78;24.48;98954.03;4980092;28;20018;-67
2023/06/20 08:00:24;;;;;;;13.57;5.22;;;;;;;31.48;22.87;98944.88;4979064;28;20497;-67
2023/06/20 08:02:51;;;;;;;8.50;4.25;;;;;;;32.56;22.78;98935.16;4979340;28;20058;-68
2023/06/20 08:05:16;;;;;;;8.55;4.55;;;;;;;34.41;21.16;98941.44;4977893;28;20054;-67
2023/06/20 08:07:41;;;;;;;12.48;5.05;;;;;;;35.34;20.55;98946.25;4973476;28;20038;-76
2023/06/20 08:10:07;;;;;;;18.55;5.03;;;;;;;35.16;20.66;98943.03;4978797;28;20064;-76
2023/06/20 08:12:33;;;;;;;10.55;4.38;;;;;;;34.46;20.91;98939.47;4979714;28;20233;-77
2023/06/20 08:14:58;;;;;;;9.38;5.10;;;;;;;33.62;21.62;98942.91;4979218;28;20054;-77
2023/06/20 08:17:23;;;;;;;6.00;4.68;;;;;;;32.76;21.79;98938.00;4978207;28;20048;-76
2023/06/20 08:19:49;;;;;;;10.63;4.28;;;;;;;32.32;22.97;98928.41;4978729;28;20046;-77
2023/06/20 08:22:14;;;;;;;6.10;3.83;;;;;;;32.41;22.24;98926.78;4977927;28;20030;-75
2023/06/20 08:24:39;;;;;;;4.35;3.78;;;;;;;32.67;22.33;98933.25;4981892;28;20038;-76
2023/06/20 08:27:04;;;;;;;7.45;4.82;;;;;;;32.67;22.24;98924.97;4982784;28;20034;-77
2023/06/20 08:29:30;;;;;;;5.38;4.18;;;;;;;33.11;22.36;98920.69;4997740;28;20030;-76
2023/06/20 08:31:55;;;;;;;4.50;4.03;;;;;;;34.52;21.53;98920.91;4977764;28;20057;-77
2023/06/20 08:34:20;;;;;;;9.07;4.50;;;;;;;36.53;20.19;98924.34;4976292;28;20050;-74
2023/06/20 08:36:45;;;;;;;11.00;5.35;;;;;;;38.66;18.27;98912.53;4957872;28;20054;-75
2023/06/20 08:39:11;;;;;;;5.85;5.22;;;;;;;40.43;17.33;98913.75;4970926;28;20050;-76
2023/06/20 08:41:36;;;;;;;6.72;5.65;;;;;;;40.96;16.99;98908.00;4970039;28;20501;-75
2023/06/20 08:44:02;;;;;;;6.15;5.55;;;;;;;40.64;16.52;98914.78;4967015;28;20046;-74
2023/06/20 08:46:27;;;;;;;7.43;5.70;;;;;;;41.34;16.49;98910.97;4960194;28;20059;-75
2023/06/20 08:48:53;;;;;;;8.35;5.90;;;;;;;42.69;15.46;98911.28;4960832;28;20038;-74
2023/06/20 08:51:21;;;;;;;6.47;5.93;;;;;;;44.11;14.79;98916.75;4960773;28;20046;-74
2023/06/20 08:53:47;;;;;;;7.63;6.93;;;;;;;44.57;14.52;98911.88;4971804;28;20045;-75
2023/06/20 08:56:14;;;;;;;10.57;7.50;;;;;;;44.86;13.67;98917.25;4980381;28;20048;-74
2023/06/20 08:58:40;;;;;;;8.02;7.43;;;;;;;45.55;13.60;98907.72;4972527;28;20050;-75
2023/06/20 09:01:07;;;;;;;9.73;7.80;;;;;;;45.72;13.41;98902.94;4970707;28;20057;-76
2023/06/20 09:03:33;;;;;;;20.85;8.63;;;;;;;45.29;13.51;98898.88;4971830;28;20050;-75
2023/06/20 09:05:58;;;;;;;8.52;7.72;;;;;;;44.70;13.59;98905.03;4959288;28;20049;-69
2023/06/20 09:08:32;;;;;;;9.13;8.43;;;;;;;43.58;14.17;98899.94;4969334;28;20112;-69
2023/06/20 09:11:10;;;;;;;8.27;7.45;;;;;;;43.76;14.57;98909.84;4961429;28;20421;-68
2023/06/20 09:13:36;;;;;;;9.98;7.65;;;;;;;43.08;14.72;98892.41;4966344;28;20054;-68
2023/06/20 09:16:09;;;;;;;10.80;7.43;;;;;;;41.77;15.50;98898.09;4965849;28;20046;-67
2023/06/20 09:18:35;;;;;;;15.43;7.22;;;;;;;41.36;15.73;98901.44;4957581;28;20417;-70
2023/06/20 09:21:01;;;;;;;7.80;6.90;;;;;;;42.32;15.11;98892.53;4957238;28;20062;-67
2023/06/20 09:23:31;;;;;;;10.25;7.28;;;;;;;43.72;14.05;98894.84;4958285;28;20058;-68
2023/06/20 09:25:57;;;;;;;8.52;7.50;;;;;;;44.42;13.43;98884.47;4957438;28;20046;-67
2023/06/20 09:28:23;;;;;;;8.73;7.95;;;;;;;44.67;13.54;98888.06;4956927;28;20448;-68
2023/06/20 09:30:48;;;;;;;9.60;8.60;;;;;;;45.71;13.41;98881.59;4957038;28;20056;-67
2023/06/20 09:33:15;;;;;;;10.57;8.52;;;;;;;46.06;13.17;98881.72;4958289;28;20047;-71
2023/06/20 09:35:40;;;;;;;11.13;8.52;;;;;;;45.14;13.09;98877.13;4957031;28;20050;-69
2023/06/20 09:38:05;;;;;;;11.45;8.43;;;;;;;45.31;13.27;98874.00;4957137;28;20047;-68
2023/06/20 09:40:40;;;;;;;10.52;9.48;;;;;;;46.25;12.62;98877.00;4958187;28;20054;-69
2023/06/20 09:43:05;;;;;;;13.13;9.60;;;;;;;46.48;12.50;98860.28;4958172;28;20035;-70
2023/06/20 09:45:31;;;;;;;11.23;10.35;;;;;;;46.03;12.77;98866.38;4958307;28;20065;-70
2023/06/20 09:47:58;;;;;;;10.90;9.90;;;;;;;45.67;12.64;98869.41;4958122;28;20045;-70
2023/06/20 09:50:26;;;;;;;13.55;9.85;;;;;;;44.72;13.23;98868.94;4958050;28;20492;-70
2023/06/20 09:53:10;;;;;;;10.40;9.48;;;;;;;45.33;13.10;98860.41;4956670;28;20042;-70
2023/06/20 09:55:37;;;;;;;18.77;10.30;;;;;;;45.99;12.75;98856.19;4957923;28;20057;-69
2023/06/20 09:58:04;;;;;;;11.68;10.88;;;;;;;46.53;12.48;98851.53;4957652;28;20050;-69
2023/06/20 10:00:31;;;;;;;13.05;12.05;;;;;;;46.98;12.30;98839.66;4957706;28;20388;-70
2023/06/20 10:03:00;;;;;;;11.20;10.30;;;;;;;47.11;12.54;98848.84;4957863;28;20042;-69
2023/06/20 10:05:27;;;;;;;12.15;11.15;;;;;;;45.46;13.09;98853.53;4960527;28;20037;-70
2023/06/20 10:07:57;;;;;;;9.55;8.65;;;;;;;43.10;14.04;98888.13;4970216;28;20053;-69
2023/06/20 10:10:23;;;;;;;10.27;7.78;;;;;;;40.68;15.04;98830.31;4971918;28;20050;-70
2023/06/20 10:12:49;;;;;;;7.10;6.45;;;;;;;38.46;16.38;98846.94;4957204;28;20035;-69
2023/06/20 10:15:15;;;;;;;7.85;6.30;;;;;;;36.72;17.80;98848.28;4956844;28;20057;-68
2023/06/20 10:17:48;;;;;;;15.40;5.85;;;;;;;37.43;18.41;98854.72;4957121;28;20461;-69
2023/06/20 10:20:43;;;;;;;9.63;6.03;;;;;;;38.34;17.35;98844.69;4955905;28;20046;-70
2023/06/20 10:23:10;;;;;;;9.48;5.40;;;;;;;36.91;18.17;98834.38;4916251;29;20409;-70
2023/06/20 10:25:50;;;;;;;7.47;5.35;;;;;;;36.83;18.53;98835.09;4915906;29;20061;-68
2023/06/20 10:28:19;;;;;;;9.40;6.35;;;;;;;37.77;18.21;98834.94;4915894;29;20051;-70
2023/06/20 10:30:52;;;;;;;6.95;6.22;;;;;;;39.56;17.00;98831.53;4915909;29;20047;-68
2023/06/20 10:33:25;;;;;;;7.93;5.95;;;;;;;40.14;16.68;98832.47;4915863;29;20410;-69
2023/06/20 10:35:55;;;;;;;9.63;6.10;;;;;;;38.99;17.26;98833.22;4915888;29;20047;-69
2023/06/20 10:38:20;;;;;;;8.57;6.13;;;;;;;37.68;17.84;98823.72;4899773;29;20426;-70
2023/06/20 10:40:46;;;;;;;6.50;5.80;;;;;;;36.31;18.56;98820.25;4915686;29;20050;-68
2023/06/20 10:43:18;;;;;;;13.60;5.65;;;;;;;35.20;20.49;98827.72;4915718;29;20047;-68
2023/06/20 10:45:57;;;;;;;7.22;5.35;;;;;;;34.19;20.82;98820.84;4915826;29;20069;-67
2023/06/20 10:48:26;;;;;;;9.70;5.05;;;;;;;32.81;22.56;98811.03;4913873;28;20058;-69
2023/06/20 10:50:58;;;;;;;7.95;4.80;;;;;;;32.15;22.63;98825.69;4915668;29;20051;-69
2023/06/20 10:53:24;;;;;;;6.05;4.75;;;;;;;31.31;23.20;98813.59;4916203;29;20498;-75
2023/06/20 10:55:49;;;;;;;5.85;5.15;;;;;;;30.76;24.37;98810.34;4915818;29;20506;-71
2023/06/20 10:58:16;;;;;;;14.50;6.13;;;;;;;30.28;24.88;98820.25;4899870;29;20409;-71
2023/06/20 11:00:42;;;;;;;9.88;5.40;;;;;;;29.98;25.30;98808.88;4950942;28;20250;-70
2023/06/20 11:03:09;;;;;;;8.32;5.75;;;;;;;29.75;25.67;98821.75;4955220;28;20053;-70
2023/06/20 11:05:35;;;;;;;6.63;5.20;;;;;;;29.54;25.38;98806.06;4971854;28;20050;-69
2023/06/20 11:08:03;;;;;;;7.38;4.80;;;;;;;29.36;26.13;98806.28;4956609;28;20045;-70
2023/06/20 11:10:34;;;;;;;9.32;5.45;;;;;;;29.31;26.74;98814.47;4971457;28;20038;-70
2023/06/20 11:13:01;;;;;;;6.00;4.93;;;;;;;29.08;27.11;98810.81;4951851;28;20413;-70
2023/06/20 11:15:28;;;;;;;12.45;5.15;;;;;;;28.92;27.16;98806.13;4956486;28;20046;-71
2023/06/20 11:18:00;;;;;;;6.28;4.85;;;;;;;28.69;26.82;98795.25;4956456;28;20409;-71
2023/06/20 11:20:26;;;;;;;9.55;5.40;;;;;;;28.58;26.83;98790.66;4954703;28;20054;-71
2023/06/20 11:22:54;;;;;;;10.43;5.78;;;;;;;28.50;26.51;98798.22;4955884;28;20413;-70
2023/06/20 11:25:31;;;;;;;15.05;5.35;;;;;;;28.48;27.01;98794.91;4956221;28;20497;-71
2023/06/20 11:28:13;;;;;;;11.27;5.15;;;;;;;28.25;27.58;98792.25;4953630;28;20042;-71
2023/06/20 11:30:50;;;;;;;8.32;5.22;;;;;;;28.05;27.71;98789.09;4955094;28;20049;-71